Time;durP1;ratioP1;P1;durP2;ratioP2;P2;SDS_P1;SDS_P2;PMS_P1;PMS_P2;Temp;Humidity;BMP_temperature;BMP_pressure;BME280_temperature;BME280_humidity;BME280_pressure;Samples;Min_cycle;Max_cycle;Signal;HPM_P1;HPM_P2
2020/12/24 00:01:12;;;;;;;12.85;5.22;;;;;;;4.19;99.31;100485.06;4998982;28;20109;-79
2020/12/24 00:03:37;;;;;;;7.63;4.85;;;;;;;4.21;99.87;100490.97;4995150;28;20026;-79
2020/12/24 00:06:03;;;;;;;8.38;5.18;;;;;;;4.19;99.27;100479.88;4976630;28;20050;-78
2020/12/24 00:08:29;;;;;;;11.88;5.65;;;;;;;4.17;99.64;100481.75;4956895;28;20032;-79
2020/12/24 00:10:54;;;;;;;9.85;6.30;;;;;;;4.21;99.02;100480.56;5018027;28;20476;-79
2020/12/24 00:13:20;;;;;;;17.95;6.63;;;;;;;4.12;99.62;100471.69;5019538;28;20149;-78
2020/12/24 00:15:46;;;;;;;15.00;6.97;;;;;;;4.14;99.55;100471.56;4955764;28;20062;-78
2020/12/24 00:18:15;;;;;;;22.00;7.68;;;;;;;4.07;99.01;100463.41;4978510;28;20515;-78
2020/12/24 00:20:40;;;;;;;21.08;8.38;;;;;;;4.08;99.48;100472.84;4962965;28;20093;-80
2020/12/24 00:23:06;;;;;;;18.95;7.15;;;;;;;4.07;99.41;100469.44;4961210;28;20120;-76
2020/12/24 00:25:31;;;;;;;17.75;6.93;;;;;;;4.05;98.73;100471.31;4980679;28;20037;-77
2020/12/24 00:27:57;;;;;;;18.83;6.38;;;;;;;4.08;98.70;100476.25;5004993;28;20048;-77
2020/12/24 00:30:22;;;;;;;18.10;6.22;;;;;;;4.02;98.78;100466.34;4978739;28;20440;-79
2020/12/24 00:32:48;;;;;;;21.15;6.38;;;;;;;4.00;99.43;100470.00;4995011;28;20035;-78
2020/12/24 00:35:13;;;;;;;19.23;6.78;;;;;;;3.95;99.65;100467.72;4979685;28;20329;-79
2020/12/24 00:37:39;;;;;;;28.38;6.60;;;;;;;3.92;99.02;100472.28;4995133;28;20045;-77
2020/12/24 00:40:05;;;;;;;20.08;6.25;;;;;;;3.88;99.05;100475.13;4979570;28;20416;-77
2020/12/24 00:42:31;;;;;;;16.98;5.55;;;;;;;3.91;99.16;100479.25;4996548;28;20030;-77
2020/12/24 00:45:27;;;;;;;;;;;;;;;;;;;;;
2020/12/24 00:48:00;;;;;;;9.85;4.95;;;;;;;3.88;98.55;100487.25;4980388;28;20041;-77
2020/12/24 00:50:26;;;;;;;20.38;5.53;;;;;;;3.84;98.62;100481.47;5012445;28;20049;-78
2020/12/24 00:53:01;;;;;;;12.70;4.72;;;;;;;3.76;98.04;100464.78;5003688;28;20034;-78
2020/12/24 00:55:29;;;;;;;13.02;4.82;;;;;;;3.84;98.55;100475.44;5001359;28;20062;-77
2020/12/24 00:57:56;;;;;;;19.42;4.60;;;;;;;3.82;98.22;100475.53;4982055;28;20405;-76
2020/12/24 01:00:23;;;;;;;11.07;3.83;;;;;;;3.72;98.64;100482.34;5013828;28;20034;-77
2020/12/24 01:02:48;;;;;;;14.18;3.78;;;;;;;3.75;98.69;100482.13;4968052;28;20042;-76
2020/12/24 01:05:14;;;;;;;15.23;3.70;;;;;;;3.64;98.48;100471.69;4976216;28;20042;-78
2020/12/24 01:07:39;;;;;;;25.85;4.07;;;;;;;3.69;98.23;100490.31;4992515;28;20583;-76
2020/12/24 01:10:07;;;;;;;11.35;3.45;;;;;;;3.66;98.68;100486.19;5004119;28;20039;-78
2020/12/24 01:12:34;;;;;;;12.50;3.40;;;;;;;3.73;98.34;100490.94;4991483;28;20035;-77
2020/12/24 01:15:00;;;;;;;7.93;2.63;;;;;;;3.72;97.61;100479.75;4965496;28;20034;-76
2020/12/24 01:17:26;;;;;;;10.43;2.95;;;;;;;3.69;97.88;100469.56;4976026;28;20042;-77
2020/12/24 01:19:51;;;;;;;13.13;3.22;;;;;;;3.63;97.95;100473.44;4976299;28;20050;-76
2020/12/24 01:22:17;;;;;;;14.93;3.38;;;;;;;3.58;98.33;100459.97;4993861;28;20038;-78
2020/12/24 01:24:42;;;;;;;17.33;2.97;;;;;;;3.57;98.32;100466.09;4999685;28;20453;-78
2020/12/24 01:27:08;;;;;;;11.63;2.60;;;;;;;3.59;98.59;100463.38;4992797;28;20116;-79
2020/12/24 01:29:33;;;;;;;12.35;2.67;;;;;;;3.58;98.20;100465.16;5003766;28;20484;-76
2020/12/24 01:31:59;;;;;;;12.25;2.80;;;;;;;3.48;98.66;100452.03;4959367;28;20030;-76
2020/12/24 01:34:24;;;;;;;14.35;3.30;;;;;;;3.51;98.72;100454.38;4985471;28;20038;-79
2020/12/24 01:36:49;;;;;;;12.38;2.55;;;;;;;3.52;98.28;100455.19;5014896;28;20516;-76
2020/12/24 01:39:15;;;;;;;12.15;2.70;;;;;;;3.51;97.82;100458.75;5002299;28;20076;-77
2020/12/24 01:41:41;;;;;;;8.48;2.33;;;;;;;3.43;98.51;100450.69;5005746;28;20030;-77
2020/12/24 01:44:07;;;;;;;13.38;2.72;;;;;;;3.52;98.02;100468.16;4987211;28;20046;-76
2020/12/24 01:46:32;;;;;;;7.93;2.60;;;;;;;3.43;98.28;100461.88;5010922;28;20034;-76
2020/12/24 01:48:58;;;;;;;11.50;2.90;;;;;;;3.37;98.77;100462.31;4999304;28;20046;-78
2020/12/24 01:51:27;;;;;;;14.50;2.67;;;;;;;3.40;98.63;100462.06;5008268;28;20416;-74
2020/12/24 01:53:57;;;;;;;8.02;2.30;;;;;;;3.39;98.82;100462.19;4979605;28;20073;-76
2020/12/24 01:56:23;;;;;;;10.80;2.75;;;;;;;3.34;99.05;100459.09;5002168;28;20117;-76
2020/12/24 01:58:53;;;;;;;6.25;2.65;;;;;;;3.36;98.95;100463.22;4980562;28;20046;-77
2020/12/24 02:01:20;;;;;;;14.18;3.13;;;;;;;3.29;98.71;100467.19;4983626;28;20035;-77
2020/12/24 02:03:46;;;;;;;15.73;3.58;;;;;;;3.27;99.18;100461.28;5025063;28;20475;-77
2020/12/24 02:06:12;;;;;;;10.07;2.50;;;;;;;3.28;98.90;100456.00;4999228;28;20038;-77
2020/12/24 02:08:38;;;;;;;12.15;3.33;;;;;;;3.24;99.01;100448.50;5011788;28;20038;-77
2020/12/24 02:11:04;;;;;;;9.10;2.85;;;;;;;3.23;98.97;100452.88;4977416;28;20559;-77
2020/12/24 02:13:29;;;;;;;8.50;3.33;;;;;;;3.19;99.34;100442.84;4968854;28;20049;-79
2020/12/24 02:15:56;;;;;;;11.02;3.33;;;;;;;3.21;99.21;100446.97;5009285;28;20041;-78
2020/12/24 02:18:21;;;;;;;14.57;3.58;;;;;;;3.20;99.69;100442.75;4995729;28;20048;-78
2020/12/24 02:20:47;;;;;;;9.88;2.80;;;;;;;3.15;99.44;100444.00;4964003;28;20046;-77
2020/12/24 02:23:13;;;;;;;11.00;2.65;;;;;;;3.15;99.32;100442.22;5012062;28;20038;-77
2020/12/24 02:25:42;;;;;;;5.05;2.75;;;;;;;3.15;99.27;100439.63;4992819;28;20475;-76
2020/12/24 02:28:09;;;;;;;3.53;2.40;;;;;;;3.21;99.09;100440.97;4996201;28;20053;-78
2020/12/24 02:30:35;;;;;;;14.90;2.95;;;;;;;3.21;99.13;100436.63;4978429;28;20038;-77
2020/12/24 02:33:01;;;;;;;4.93;2.10;;;;;;;3.14;98.87;100432.78;4995427;28;20030;-78
2020/12/24 02:35:26;;;;;;;9.40;2.63;;;;;;;3.19;99.05;100424.69;5000550;28;20738;-77
2020/12/24 02:37:52;;;;;;;6.38;2.58;;;;;;;3.20;98.88;100423.75;4996920;28;20046;-79
2020/12/24 02:40:18;;;;;;;11.38;3.22;;;;;;;3.14;98.70;100417.22;4995611;28;20034;-78
2020/12/24 02:42:43;;;;;;;13.27;3.30;;;;;;;3.10;98.76;100393.28;5008103;28;20100;-76
2020/12/24 02:45:09;;;;;;;10.20;3.63;;;;;;;3.17;98.85;100398.06;4970169;28;20098;-76
2020/12/24 02:47:37;;;;;;;13.10;3.17;;;;;;;3.10;98.95;100395.88;4976428;28;20030;-77
2020/12/24 02:50:08;;;;;;;9.38;3.65;;;;;;;3.07;99.16;100388.34;4993606;28;20045;-75
2020/12/24 02:52:34;;;;;;;10.25;3.67;;;;;;;3.07;99.19;100388.34;4978145;28;20031;-78
2020/12/24 02:55:00;;;;;;;9.93;3.15;;;;;;;3.01;99.13;100375.78;4970314;28;20042;-80
2020/12/24 02:57:25;;;;;;;9.13;3.22;;;;;;;3.12;99.20;100385.41;4994912;28;20045;-76
2020/12/24 02:59:51;;;;;;;10.02;3.88;;;;;;;3.09;99.14;100383.88;4989974;28;20042;-76
2020/12/24 03:02:16;;;;;;;12.68;3.97;;;;;;;3.02;99.27;100371.44;4970300;28;20097;-77
2020/12/24 03:04:42;;;;;;;9.90;3.30;;;;;;;3.16;99.21;100386.03;4991520;28;20407;-78
2020/12/24 03:07:07;;;;;;;13.13;3.63;;;;;;;3.08;99.56;100371.03;4990848;28;20039;-77
2020/12/24 03:09:33;;;;;;;13.05;3.13;;;;;;;3.11;98.96;100368.22;4969507;28;20042;-77
2020/12/24 03:11:58;;;;;;;8.05;3.05;;;;;;;3.10;99.38;100372.56;5009450;28;20038;-75
2020/12/24 03:14:24;;;;;;;10.20;3.17;;;;;;;3.08;99.40;100360.66;4977127;28;20452;-76
2020/12/24 03:16:49;;;;;;;10.48;2.63;;;;;;;3.14;99.08;100374.94;4959983;28;20038;-77
2020/12/24 03:19:15;;;;;;;11.93;2.55;;;;;;;3.07;99.27;100375.38;4992762;28;20547;-77
2020/12/24 03:21:40;;;;;;;8.10;2.00;;;;;;;3.05;99.19;100359.13;5013379;28;20040;-76
2020/12/24 03:24:06;;;;;;;11.90;2.45;;;;;;;3.10;99.22;100376.91;4997211;28;20030;-77
2020/12/24 03:26:32;;;;;;;5.68;2.17;;;;;;;3.07;99.20;100367.59;4987326;28;20030;-75
2020/12/24 03:28:58;;;;;;;10.93;2.60;;;;;;;3.10;99.09;100379.50;4991805;28;20127;-77
2020/12/24 03:31:24;;;;;;;12.18;2.20;;;;;;;3.06;99.05;100388.44;4957457;28;20428;-77
2020/12/24 03:33:52;;;;;;;9.52;2.47;;;;;;;3.14;99.06;100388.72;5009705;28;20033;-77
2020/12/24 03:36:17;;;;;;;13.38;2.10;;;;;;;3.19;98.50;100388.41;4987144;28;20065;-77
2020/12/24 03:38:43;;;;;;;6.45;2.72;;;;;;;3.16;98.06;100394.63;5016955;28;20057;-76
2020/12/24 03:41:09;;;;;;;5.22;1.40;;;;;;;3.19;98.30;100394.41;4961187;28;20544;-77
2020/12/24 03:43:34;;;;;;;8.60;1.80;;;;;;;3.01;98.53;100391.34;4969575;28;20041;-77
2020/12/24 03:46:00;;;;;;;2.90;1.52;;;;;;;3.15;98.38;100397.34;4995417;28;20030;-77
2020/12/24 03:48:25;;;;;;;10.07;2.28;;;;;;;3.09;98.41;100401.19;4988428;23;20039;-79
2020/12/24 03:50:52;;;;;;;3.38;1.70;;;;;;;3.02;98.56;100405.97;4965970;28;20459;-78
2020/12/24 03:53:18;;;;;;;8.90;2.72;;;;;;;3.00;98.38;100396.66;4966207;28;20038;-77
2020/12/24 03:55:44;;;;;;;5.53;2.03;;;;;;;3.02;98.70;100397.38;4966799;28;20031;-77
2020/12/24 03:58:09;;;;;;;8.45;2.33;;;;;;;3.04;99.12;100391.13;4975753;28;20034;-76
2020/12/24 04:00:35;;;;;;;4.00;1.85;;;;;;;2.97;98.91;100386.47;4967857;28;20063;-77
2020/12/24 04:03:00;;;;;;;6.82;2.22;;;;;;;3.08;98.71;100382.19;4952231;29;20516;-78
2020/12/24 04:05:26;;;;;;;4.20;1.60;;;;;;;3.06;98.75;100378.88;4953741;29;20045;-78
2020/12/24 04:07:51;;;;;;;4.40;1.50;;;;;;;2.98;98.43;100375.19;4952167;29;20394;-78
2020/12/24 04:10:17;;;;;;;6.43;1.80;;;;;;;3.03;97.64;100379.13;4960998;28;20035;-78
2020/12/24 04:12:43;;;;;;;6.13;1.67;;;;;;;3.00;98.52;100384.50;4953227;28;20035;-77
2020/12/24 04:15:09;;;;;;;5.90;1.92;;;;;;;2.96;98.76;100382.22;4953074;28;20409;-77
2020/12/24 04:17:34;;;;;;;7.65;2.20;;;;;;;3.01;98.81;100391.34;4953319;29;20023;-77
2020/12/24 04:20:00;;;;;;;6.88;2.03;;;;;;;3.02;98.30;100381.81;4957751;28;20043;-78
2020/12/24 04:22:25;;;;;;;7.43;2.42;;;;;;;2.90;98.79;100386.06;4951720;28;20043;-78
2020/12/24 04:24:51;;;;;;;5.68;2.40;;;;;;;2.93;99.07;100388.47;4978925;28;20035;-79
2020/12/24 04:27:17;;;;;;;8.05;2.30;;;;;;;2.87;98.51;100392.28;4969792;28;20035;-80
2020/12/24 04:29:42;;;;;;;5.50;2.08;;;;;;;2.93;98.58;100402.22;4979407;28;20152;-77
2020/12/24 04:32:08;;;;;;;1.83;1.20;;;;;;;2.82;97.00;100394.38;4970783;28;20030;-79
2020/12/24 04:34:34;;;;;;;2.92;1.38;;;;;;;2.82;97.31;100391.78;4971200;28;20477;-79
2020/12/24 04:36:59;;;;;;;2.85;1.70;;;;;;;2.69;97.72;100402.16;4955236;28;20039;-78
2020/12/24 04:39:25;;;;;;;4.80;1.80;;;;;;;2.60;99.16;100399.34;4970739;28;20039;-78
2020/12/24 04:41:58;;;;;;;2.70;1.48;;;;;;;2.64;97.83;100409.41;4951532;28;20051;-78
2020/12/24 04:44:25;;;;;;;3.27;1.37;;;;;;;2.65;98.06;100405.06;4947939;28;20105;-78
2020/12/24 04:46:54;;;;;;;2.95;1.20;;;;;;;2.51;97.90;100400.81;4967419;28;20039;-78
2020/12/24 04:49:20;;;;;;;3.00;0.88;;;;;;;2.48;97.29;100412.19;4952005;28;20441;-78
2020/12/24 04:51:46;;;;;;;4.50;1.00;;;;;;;2.39;97.91;100414.56;4935783;29;20039;-78
2020/12/24 04:54:13;;;;;;;3.75;0.90;;;;;;;2.32;98.07;100417.56;4978158;28;20157;-77
2020/12/24 04:56:39;;;;;;;1.80;0.82;;;;;;;2.21;97.83;100416.63;4960290;28;20035;-78
2020/12/24 04:59:06;;;;;;;1.13;0.80;;;;;;;2.35;98.24;100429.47;4969708;28;20105;-77
2020/12/24 05:01:32;;;;;;;4.65;0.60;;;;;;;2.25;97.80;100418.91;4956687;28;20458;-78
2020/12/24 05:03:57;;;;;;;5.82;0.80;;;;;;;2.14;97.83;100423.94;4935061;29;20059;-79
2020/12/24 05:06:23;;;;;;;2.25;0.60;;;;;;;2.12;97.95;100420.63;4949632;28;20042;-79
2020/12/24 05:08:57;;;;;;;1.55;0.73;;;;;;;2.08;97.59;100416.59;4961104;28;20062;-80
2020/12/24 05:11:28;;;;;;;1.00;0.60;;;;;;;1.97;96.46;100406.09;4935216;29;20027;-82
2020/12/24 05:13:57;;;;;;;6.28;1.10;;;;;;;1.88;98.46;100416.09;4968967;28;20126;-78
2020/12/24 05:16:23;;;;;;;5.45;0.80;;;;;;;1.72;97.60;100421.44;4950633;28;20035;-78
2020/12/24 05:18:49;;;;;;;1.48;0.70;;;;;;;1.70;98.11;100417.28;4954515;28;20087;-81
2020/12/24 05:21:30;;;;;;;0.90;0.70;;;;;;;1.68;98.18;100437.25;4940151;29;20677;-79
2020/12/24 05:23:56;;;;;;;2.80;0.85;;;;;;;1.63;96.98;100434.13;4948574;29;20119;-80
2020/12/24 05:26:22;;;;;;;2.05;0.88;;;;;;;1.60;97.71;100440.31;4978959;28;20662;-78
2020/12/24 05:28:47;;;;;;;1.27;0.77;;;;;;;1.55;98.31;100442.34;4947716;28;20050;-80
2020/12/24 05:31:33;;;;;;;2.15;0.68;;;;;;;1.53;98.21;100441.63;4970182;28;20049;-81
2020/12/24 05:33:59;;;;;;;0.50;0.50;;;;;;;1.50;98.20;100446.97;4956176;28;20081;-79
2020/12/24 05:36:24;;;;;;;0.63;0.40;;;;;;;1.55;98.05;100448.34;4962036;28;20464;-81
2020/12/24 05:38:51;;;;;;;2.10;0.75;;;;;;;1.39;98.64;100457.97;4954923;28;20027;-80
2020/12/24 05:41:33;;;;;;;1.88;0.60;;;;;;;1.34;98.65;100462.63;4955103;29;20042;-81
2020/12/24 05:44:10;;;;;;;2.20;0.70;;;;;;;1.29;98.66;100462.88;4955084;29;20055;-80
2020/12/24 05:46:48;;;;;;;8.77;0.90;;;;;;;1.31;98.24;100465.38;4961159;28;20844;-79
2020/12/24 05:49:22;;;;;;;2.50;0.90;;;;;;;1.33;98.31;100464.34;4967629;28;20043;-79
2020/12/24 05:51:49;;;;;;;1.15;1.02;;;;;;;1.39;98.60;100468.31;4939685;29;20035;-80
2020/12/24 05:54:15;;;;;;;5.97;1.10;;;;;;;1.27;98.21;100456.16;4920247;29;20099;-80
2020/12/24 05:56:43;;;;;;;3.85;1.20;;;;;;;1.33;98.55;100466.09;4965868;28;20497;-80
2020/12/24 05:59:14;;;;;;;4.38;1.30;;;;;;;1.23;98.75;100465.03;4977478;28;20121;-80
2020/12/24 06:01:40;;;;;;;1.13;1.00;;;;;;;1.27;98.84;100472.47;4972332;28;20038;-80
2020/12/24 06:04:08;;;;;;;1.50;1.15;;;;;;;1.26;98.36;100460.50;4954429;29;20039;-80
2020/12/24 06:06:44;;;;;;;1.65;1.00;;;;;;;1.16;97.87;100475.72;4953839;28;20035;-79
2020/12/24 06:09:15;;;;;;;1.20;1.10;;;;;;;1.20;98.01;100480.69;4956463;28;20482;-77
2020/12/24 06:11:47;;;;;;;2.70;0.90;;;;;;;1.15;98.84;100489.56;4942719;29;20125;-78
2020/12/24 06:14:15;;;;;;;2.42;0.90;;;;;;;1.19;98.42;100490.22;4950852;29;20043;-79
2020/12/24 06:16:44;;;;;;;1.45;0.80;;;;;;;1.13;98.06;100493.13;4919488;29;20063;-78
2020/12/24 06:19:12;;;;;;;2.35;0.98;;;;;;;1.02;99.09;100490.38;4941636;28;20030;-79
2020/12/24 06:21:40;;;;;;;1.27;1.17;;;;;;;0.98;98.93;100484.59;4970006;28;20027;-81
2020/12/24 06:24:07;;;;;;;1.20;0.90;;;;;;;1.01;99.03;100499.06;4937793;29;20051;-79
2020/12/24 06:26:43;;;;;;;1.90;1.08;;;;;;;0.97;99.32;100494.06;4954296;28;20410;-79
2020/12/24 06:29:09;;;;;;;0.93;0.80;;;;;;;0.92;98.70;100500.41;4964461;28;20035;-78
2020/12/24 06:31:40;;;;;;;0.82;0.82;;;;;;;0.87;98.70;100489.56;4961584;28;20022;-79
2020/12/24 06:34:28;;;;;;;1.15;0.82;;;;;;;0.86;98.95;100509.34;4939223;28;20043;-80
2020/12/24 06:36:55;;;;;;;6.50;1.10;;;;;;;0.87;99.35;100505.03;4939346;28;20417;-77
2020/12/24 06:40:00;;;;;;;0.85;0.85;;;;;;;0.89;98.27;100516.94;4968266;28;20026;-81
2020/12/24 06:42:43;;;;;;;2.20;0.77;;;;;;;0.80;98.63;100520.03;4963821;28;20121;-80
2020/12/24 06:45:08;;;;;;;;;;;;;;;0.85;98.77;100527.50;4975197;28;20046;-81
2020/12/24 06:47:35;;;;;;;1.60;1.13;;;;;;;0.81;99.01;100526.88;4966479;28;20304;-78
2020/12/24 06:50:00;;;;;;;0.80;0.80;;;;;;;0.80;98.24;100542.47;4951905;28;20039;-79
2020/12/24 06:52:30;;;;;;;0.90;0.75;;;;;;;0.91;99.01;100540.91;4934243;29;20035;-77
2020/12/24 06:55:15;;;;;;;1.13;1.10;;;;;;;0.86;98.66;100548.09;4934177;29;20035;-79
2020/12/24 06:57:44;;;;;;;1.77;1.02;;;;;;;0.81;98.90;100554.44;4966144;28;20038;-78
2020/12/24 07:00:24;;;;;;;0.95;0.85;;;;;;;0.81;98.87;100544.13;4953544;28;20046;-78
2020/12/24 07:02:51;;;;;;;0.82;0.82;;;;;;;0.91;98.20;100555.59;4952078;29;20402;-79
2020/12/24 07:05:45;;;;;;;1.20;1.10;;;;;;;0.87;98.70;100559.28;4957150;28;20027;-79
2020/12/24 07:08:31;;;;;;;1.98;0.85;;;;;;;0.88;99.27;100566.09;4962169;28;20032;-77
2020/12/24 07:10:57;;;;;;;1.00;1.00;;;;;;;0.80;99.12;100576.84;4929376;29;20135;-77
2020/12/24 07:13:34;;;;;;;2.15;1.20;;;;;;;0.78;99.13;100576.13;4954431;28;20102;-79
2020/12/24 07:16:00;;;;;;;1.98;1.33;;;;;;;0.78;98.68;100591.59;4979597;28;20058;-78
2020/12/24 07:18:28;;;;;;;5.03;1.58;;;;;;;0.75;99.05;100584.88;4959346;28;20035;-79
2020/12/24 07:20:54;;;;;;;1.63;1.52;;;;;;;0.84;99.00;100580.09;4953093;28;20039;-79
2020/12/24 07:23:30;;;;;;;2.05;1.73;;;;;;;0.85;99.29;100581.75;4953168;29;20129;-78
2020/12/24 07:26:01;;;;;;;2.63;2.10;;;;;;;0.87;99.69;100585.91;4937903;29;20414;-82
2020/12/24 07:28:30;;;;;;;2.47;1.63;;;;;;;0.99;99.15;100592.13;4961615;28;20049;-80
2020/12/24 07:31:01;;;;;;;2.58;2.20;;;;;;;0.92;99.62;100588.22;4964092;28;20105;-81
2020/12/24 07:33:27;;;;;;;2.85;1.80;;;;;;;1.00;99.05;100603.28;4968611;28;20043;-79
2020/12/24 07:35:53;;;;;;;4.25;1.98;;;;;;;1.04;99.25;100605.63;4970493;28;20054;-79
2020/12/24 07:38:28;;;;;;;7.60;2.17;;;;;;;1.03;99.65;100609.09;4975127;28;20406;-79
2020/12/24 07:40:54;;;;;;;6.93;2.10;;;;;;;1.05;100.00;100612.41;4932491;29;20043;-79
2020/12/24 07:43:20;;;;;;;6.32;2.40;;;;;;;1.09;100.00;100616.53;4951906;29;20031;-79
2020/12/24 07:45:45;;;;;;;3.15;2.20;;;;;;;1.10;100.00;100618.16;4952725;29;20192;-77
2020/12/24 07:48:12;;;;;;;6.68;2.60;;;;;;;1.26;99.50;100628.47;4952381;29;20034;-78
2020/12/24 07:50:38;;;;;;;5.70;3.35;;;;;;;1.30;99.63;100627.34;4965009;28;20038;-77
2020/12/24 07:53:03;;;;;;;2.38;2.17;;;;;;;1.35;99.35;100627.06;4967932;28;20043;-80
2020/12/24 07:55:29;;;;;;;2.08;1.85;;;;;;;1.48;98.84;100637.53;4936059;28;20070;-78
2020/12/24 07:58:08;;;;;;;5.03;2.40;;;;;;;1.45;99.09;100642.88;4951600;29;20509;-79
2020/12/24 08:00:47;;;;;;;2.65;2.13;;;;;;;1.50;99.34;100649.44;4957676;28;20058;-79
2020/12/24 08:03:16;;;;;;;7.70;2.28;;;;;;;1.62;99.40;100649.63;4962275;28;20042;-79
2020/12/24 08:05:43;;;;;;;5.47;2.25;;;;;;;1.68;99.49;100662.22;4933567;29;20063;-79
2020/12/24 08:08:09;;;;;;;3.38;2.00;;;;;;;1.74;98.38;100662.66;4959203;28;20043;-80
2020/12/24 08:10:42;;;;;;;2.22;1.88;;;;;;;1.70;98.98;100665.53;4948427;28;20046;-80
2020/12/24 08:13:09;;;;;;;3.75;2.10;;;;;;;1.72;99.30;100672.25;4964065;28;20045;-81
2020/12/24 08:15:43;;;;;;;5.05;2.55;;;;;;;1.78;99.48;100665.91;4921175;29;20039;-82
2020/12/24 08:18:15;;;;;;;8.55;2.60;;;;;;;1.79;99.49;100677.06;4951535;29;20078;-79
2020/12/24 08:20:47;;;;;;;5.03;2.05;;;;;;;1.80;98.68;100676.97;4956772;28;20114;-79
2020/12/24 08:23:19;;;;;;;12.98;2.88;;;;;;;1.93;99.06;100684.84;4971947;28;20092;-77
2020/12/24 08:25:50;;;;;;;8.68;2.30;;;;;;;1.97;98.96;100690.66;4966238;28;20047;-81
2020/12/24 08:28:15;;;;;;;7.30;2.88;;;;;;;1.97;99.13;100701.00;4966311;28;20035;-79
2020/12/24 08:30:46;;;;;;;6.57;3.60;;;;;;;2.01;99.61;100694.72;4941268;28;20046;-77
2020/12/24 08:33:13;;;;;;;6.65;3.80;;;;;;;1.98;99.30;100694.91;4962207;28;20106;-79
2020/12/24 08:35:39;;;;;;;8.02;4.32;;;;;;;2.07;99.74;100702.09;4972634;28;20089;-78
2020/12/24 08:38:13;;;;;;;11.50;4.72;;;;;;;2.05;99.71;100702.19;4955236;28;20057;-78
2020/12/24 08:40:39;;;;;;;12.02;4.95;;;;;;;2.16;99.86;100705.91;4971321;28;20046;-77
2020/12/24 08:43:07;;;;;;;9.10;4.57;;;;;;;2.18;99.48;100702.28;4953820;28;20121;-78
2020/12/24 08:45:41;;;;;;;9.07;3.85;;;;;;;2.19;98.48;100714.31;4953421;28;20039;-78
2020/12/24 08:48:06;;;;;;;13.15;4.07;;;;;;;2.19;99.08;100711.72;4945475;29;20031;-77
2020/12/24 08:50:34;;;;;;;5.85;3.47;;;;;;;2.27;99.05;100725.03;4930617;29;20109;-76
2020/12/24 08:53:00;;;;;;;11.65;4.25;;;;;;;2.21;99.38;100727.16;4953070;28;20514;-77
2020/12/24 08:55:27;;;;;;;6.40;3.78;;;;;;;2.31;99.45;100729.09;4972317;28;20034;-81
2020/12/24 08:57:53;;;;;;;11.65;3.67;;;;;;;2.30;98.97;100735.19;4974881;28;20066;-78
2020/12/24 09:00:18;;;;;;;10.68;4.03;;;;;;;2.28;99.25;100734.47;4951832;29;20683;-79
2020/12/24 09:02:45;;;;;;;9.88;4.35;;;;;;;2.31;99.68;100742.03;4962677;28;20044;-80
2020/12/24 09:05:11;;;;;;;8.27;4.07;;;;;;;2.39;99.49;100749.31;4964921;28;20031;-79
2020/12/24 09:07:42;;;;;;;10.07;4.45;;;;;;;2.35;99.65;100750.44;4951582;28;20066;-75
2020/12/24 09:10:09;;;;;;;15.95;7.20;;;;;;;2.44;99.72;100755.06;4953953;28;21301;-76
2020/12/24 09:12:36;;;;;;;9.00;3.78;;;;;;;2.45;99.71;100772.28;4961113;28;20071;-77
2020/12/24 09:15:11;;;;;;;10.82;6.25;;;;;;;2.50;99.58;100759.84;4939489;29;20046;-77
2020/12/24 09:17:46;;;;;;;9.95;3.58;;;;;;;2.57;99.58;100781.03;4971234;28;20031;-80
2020/12/24 09:20:12;;;;;;;9.63;3.92;;;;;;;2.58;99.18;100781.88;4955393;28;20031;-78
2020/12/24 09:22:49;;;;;;;9.18;3.90;;;;;;;2.57;99.77;100788.81;4955882;29;20035;-78
2020/12/24 09:25:31;;;;;;;14.13;4.03;;;;;;;2.62;99.55;100794.56;4944924;29;20497;-78
2020/12/24 09:27:57;;;;;;;7.80;3.80;;;;;;;2.57;99.55;100791.41;4969804;28;20054;-79
2020/12/24 09:30:23;;;;;;;16.98;3.97;;;;;;;2.60;99.51;100798.13;4966632;28;20043;-79
2020/12/24 09:32:54;;;;;;;7.25;4.03;;;;;;;2.63;99.78;100797.97;4970705;28;20027;-81
2020/12/24 09:35:20;;;;;;;8.60;3.72;;;;;;;2.74;99.74;100808.50;5003744;28;20106;-78
2020/12/24 09:37:46;;;;;;;9.75;3.88;;;;;;;2.75;98.89;100804.13;4961886;29;20214;-79
2020/12/24 09:40:11;;;;;;;9.63;4.15;;;;;;;2.77;99.21;100804.88;4962128;29;20683;-76
2020/12/24 09:42:37;;;;;;;8.45;3.75;;;;;;;2.81;99.36;100807.19;4961005;29;20048;-78
2020/12/24 09:45:02;;;;;;;9.63;3.88;;;;;;;2.81;99.60;100804.59;4957203;29;20043;-77
2020/12/24 09:47:29;;;;;;;10.68;3.80;;;;;;;2.78;99.74;100799.59;4961829;28;20038;-78
2020/12/24 09:49:54;;;;;;;9.07;4.18;;;;;;;2.98;99.60;100819.09;4962848;28;20098;-79
2020/12/24 09:52:20;;;;;;;6.00;4.10;;;;;;;2.98;99.26;100823.47;4961512;28;20494;-78
2020/12/24 09:54:45;;;;;;;7.18;4.38;;;;;;;2.91;99.69;100818.63;4951758;29;20044;-77
2020/12/24 09:57:11;;;;;;;14.90;4.78;;;;;;;2.91;99.42;100823.00;4954086;29;20035;-77
2020/12/24 09:59:36;;;;;;;12.57;4.45;;;;;;;2.93;99.54;100813.38;4952733;28;20126;-78
2020/12/24 10:02:02;;;;;;;8.95;5.07;;;;;;;2.96;99.46;100813.19;4968944;28;20031;-78
2020/12/24 10:04:31;;;;;;;8.85;5.18;;;;;;;3.00;99.32;100822.44;4974845;28;20445;-76
2020/12/24 10:06:56;;;;;;;10.80;5.55;;;;;;;3.05;99.46;100829.91;4919402;29;20036;-77
2020/12/24 10:09:22;;;;;;;8.93;5.00;;;;;;;3.09;99.39;100826.22;4934309;29;20490;-78
2020/12/24 10:11:48;;;;;;;8.27;5.13;;;;;;;3.12;99.65;100836.38;4939252;29;20047;-77
2020/12/24 10:14:13;;;;;;;6.38;4.13;;;;;;;3.23;99.24;100838.31;4920936;29;20047;-77
2020/12/24 10:16:39;;;;;;;8.23;4.50;;;;;;;3.36;98.85;100844.38;4935600;29;20035;-78
2020/12/24 10:19:04;;;;;;;12.02;5.15;;;;;;;3.29;98.90;100838.72;4893606;29;20044;-79
2020/12/24 10:21:30;;;;;;;6.45;4.38;;;;;;;3.31;99.04;100836.03;4934821;29;20092;-77
2020/12/24 10:23:55;;;;;;;6.95;4.65;;;;;;;3.39;98.11;100840.75;4903925;29;20032;-77
2020/12/24 10:26:20;;;;;;;9.70;5.50;;;;;;;3.41;98.62;100844.91;4907579;29;20055;-78
2020/12/24 10:28:46;;;;;;;8.20;5.35;;;;;;;3.39;98.80;100839.00;4926244;29;20028;-77
2020/12/24 10:31:12;;;;;;;6.60;4.68;;;;;;;3.36;98.47;100835.78;4905235;29;20024;-77
2020/12/24 10:33:37;;;;;;;9.38;5.10;;;;;;;3.30;99.03;100832.63;4914631;29;20031;-77
2020/12/24 10:36:03;;;;;;;8.98;4.90;;;;;;;3.45;98.09;100836.00;4938178;29;20334;-79
2020/12/24 10:38:29;;;;;;;12.32;5.45;;;;;;;3.35;98.06;100828.91;4919021;29;20486;-78
2020/12/24 10:40:54;;;;;;;7.97;4.55;;;;;;;3.43;97.67;100831.88;4934469;29;20035;-77
2020/12/24 10:43:20;;;;;;;9.75;5.22;;;;;;;3.40;97.70;100838.06;4919754;29;20082;-75
2020/12/24 10:45:47;;;;;;;7.97;5.10;;;;;;;3.41;97.23;100842.31;4933369;29;20436;-77
2020/12/24 10:48:12;;;;;;;10.02;5.47;;;;;;;3.30;98.02;100840.41;4887116;29;20044;-77
2020/12/24 10:50:38;;;;;;;11.85;5.53;;;;;;;3.31;98.49;100849.00;4901896;29;20538;-76
2020/12/24 10:53:03;;;;;;;9.18;5.55;;;;;;;3.39;98.29;100838.16;4898519;29;20036;-77
2020/12/24 10:55:29;;;;;;;14.45;7.28;;;;;;;3.33;98.16;100849.75;4905897;29;20103;-78
2020/12/24 10:57:54;;;;;;;14.38;7.00;;;;;;;3.38;98.69;100860.66;4939372;29;20044;-76
2020/12/24 11:00:20;;;;;;;17.02;7.70;;;;;;;3.39;98.87;100856.28;4940412;29;20051;-77
2020/12/24 11:02:45;;;;;;;11.82;6.82;;;;;;;3.36;99.42;100857.34;4925962;29;20032;-76
2020/12/24 11:05:11;;;;;;;17.27;7.45;;;;;;;3.37;99.21;100861.59;4901413;29;20122;-77
2020/12/24 11:07:36;;;;;;;14.57;7.45;;;;;;;3.38;99.10;100863.25;4883348;29;20035;-76
2020/12/24 11:10:03;;;;;;;18.55;8.00;;;;;;;3.37;99.33;100855.56;4916166;29;20055;-77
2020/12/24 11:12:29;;;;;;;24.00;11.68;;;;;;;3.44;98.64;100854.25;4897843;29;20039;-76
2020/12/24 11:14:54;;;;;;;29.95;12.18;;;;;;;3.45;99.00;100858.53;4923685;29;20525;-77
2020/12/24 11:17:20;;;;;;;30.00;12.75;;;;;;;3.36;99.56;100854.75;4941041;29;20040;-77
2020/12/24 11:19:46;;;;;;;28.02;12.70;;;;;;;3.46;99.26;100857.56;4923553;29;20042;-77
2020/12/24 11:22:11;;;;;;;36.63;15.45;;;;;;;3.39;99.33;100854.56;4916813;29;20319;-77
2020/12/24 11:24:37;;;;;;;39.85;15.55;;;;;;;3.54;99.41;100859.69;4916701;29;20136;-77
2020/12/24 11:27:02;;;;;;;38.45;17.15;;;;;;;3.54;99.36;100865.69;4934191;29;20040;-77
2020/12/24 11:29:28;;;;;;;43.30;16.52;;;;;;;3.60;99.28;100862.72;4935817;29;20038;-77
2020/12/24 11:31:57;;;;;;;45.63;19.27;;;;;;;3.58;99.50;100867.19;4921971;29;20040;-78
2020/12/24 11:34:23;;;;;;;46.20;20.45;;;;;;;3.58;99.24;100863.75;4922983;29;20042;-78